Etusivu
METAR-TAF:

METAR-TAF

Lentoasemat :

Čáslav, Tšekki

Leveyspiiri: 49-56-23N, Pituuspiiri: 15-22-55E, korkeus merenpinnasta: 242 m

Tämänhetkinen sää

Tämä raportti tehtiin 49 minuuttia sitten, kello 11.00 UTC
Tuuli 2 kn eri suunnista
Lämpötila 27°C
Kosteus 48%
Ilmanpaine 1016 hPa
Näkyvyys 10 km tai enemmän
ei pilviä alle 1500 m:ssä eikä cumulonimbus-pilviä

METAR: LKCV 181100Z VRB02KT CAVOK 27/15 Q1016 NOSIG

Aika: 13:49 (11:49 UTC)

Sääennuste

Tämä raportti tehtiin 6 tuntia ja 49 minuuttia sitten, kello 05.00 UTC
Ennuste voimassa 18. päivästä klo 06 UTC - 19. päivään klo 06 UTC
Tuuli 5 kn etelästä/kaakosta
Näkyvyys 10 km tai enemmän
ei pilviä alle 1500 m:ssä eikä cumulonimbus-pilviä
Ajoittain
18. päivästä klo 16 UTC - 19. päivään klo 02 UTC
Tuuli 10 kn kaakosta

TAF: LKCV 180500Z 1806/1906 16005KT CAVOK TEMPO 1816/1902 14010KT

Säähavainnot ja -ennusteet yli 4000 lentoasemalta (METAR- ja TAF-raportit).

Käytössä olevat sääasemat on merkitty karttaan keltaisilla ja punaisilla pisteillä.

Aseta hiiri pisteen päälle nähdäksesi sääaseman nimen.

Klikkaa sitten nähdäksesi säähavainnot ja -ennusteet.

Kartan vaihtaminen: klikkaa mustalla rastilla varustettuja vihreitä pisteitä, niin voit zoomata sisään; viivalla varustettua vihreää pistettä, niin voit zoomata ulos tai vihreitä nuolia, niin pääset viereisille kartoille.


METAR-TAF: